Time;durP1;ratioP1;P1;durP2;ratioP2;P2;SDS_P1;SDS_P2;PMS_P1;PMS_P2;Temp;Humidity;BMP_temperature;BMP_pressure;BME280_temperature;BME280_humidity;BME280_pressure;Samples;Min_cycle;Max_cycle;Signal;HPM_P1;HPM_P2
2022/10/22 00:00:16;;;;;;;10.53;9.07;;;;;;;13.24;72.81;100452.22;837168;23;779;-75
2022/10/22 00:00:36;;;;;;;11.20;9.02;;;;;;;13.23;72.98;100459.22;839648;23;1092;-75
2022/10/22 00:00:57;;;;;;;10.32;9.00;;;;;;;13.22;73.28;100446.09;841202;23;806;-76
2022/10/22 00:01:19;;;;;;;9.80;8.80;;;;;;;13.24;72.94;100455.72;839665;23;1198;-75
2022/10/22 00:01:39;;;;;;;10.40;9.30;;;;;;;13.29;72.88;100461.03;843587;23;2053;-76
2022/10/22 00:02:00;;;;;;;10.40;9.30;;;;;;;13.30;73.06;100468.03;843587;23;1297;-76
2022/10/22 00:02:21;;;;;;;10.88;9.77;;;;;;;13.26;72.94;100454.00;838846;23;1958;-75
2022/10/22 00:02:42;;;;;;;10.70;9.60;;;;;;;13.22;73.28;100444.34;841232;23;1018;-75
2022/10/22 00:03:02;;;;;;;10.90;9.40;;;;;;;13.23;73.24;100456.59;841010;23;934;-76
2022/10/22 00:03:23;;;;;;;11.40;9.40;;;;;;;13.28;73.30;100468.00;836200;23;1252;-76
2022/10/22 00:03:44;;;;;;;12.30;9.10;;;;;;;13.22;73.25;100452.19;836517;23;1176;-75
2022/10/22 00:04:05;;;;;;;13.03;9.50;;;;;;;13.28;73.17;100461.88;836376;23;1130;-76
2022/10/22 00:04:25;;;;;;;13.50;9.30;;;;;;;13.24;73.34;100457.47;837138;23;1132;-75
2022/10/22 00:04:48;;;;;;;13.90;9.13;;;;;;;13.28;73.17;100467.13;831969;23;1223;-75
2022/10/22 00:05:09;;;;;;;12.32;8.90;;;;;;;13.23;73.44;100456.59;835743;23;1296;-75
2022/10/22 00:05:30;;;;;;;11.90;9.00;;;;;;;13.23;73.20;100451.38;838168;23;1101;-75
2022/10/22 00:05:50;;;;;;;11.52;9.25;;;;;;;13.26;73.17;100458.34;842121;23;912;-76
2022/10/22 00:06:11;;;;;;;13.50;9.27;;;;;;;13.26;73.32;100458.34;840631;23;1235;-76
2022/10/22 00:06:32;;;;;;;12.27;9.30;;;;;;;13.22;73.09;100451.34;842001;23;1035;-76
2022/10/22 00:06:53;;;;;;;11.18;9.30;;;;;;;13.32;73.21;100468.91;835833;23;1888;-76
2022/10/22 00:07:45;;;;;;;10.00;8.97;;;;;;;13.31;73.14;100467.16;835729;23;1163;-76
2022/10/22 00:08:06;;;;;;;11.07;8.90;;;;;;;13.30;73.11;100462.78;835606;23;1136;-76
2022/10/22 00:08:27;;;;;;;12.40;9.40;;;;;;;13.23;73.31;100453.09;841029;23;1124;-76
2022/10/22 00:08:48;;;;;;;12.32;9.63;;;;;;;13.21;73.37;100453.06;835555;23;1261;-76
2022/10/22 00:09:11;;;;;;;12.77;9.35;;;;;;;13.26;73.50;100463.59;831794;23;1333;-76
2022/10/22 00:09:32;;;;;;;13.15;9.00;;;;;;;13.25;73.46;100457.50;839360;23;1297;-76
2022/10/22 00:09:52;;;;;;;13.67;9.00;;;;;;;13.23;73.13;100453.09;840990;23;913;-76
2022/10/22 00:10:13;;;;;;;12.63;8.90;;;;;;;13.21;73.27;100452.19;840998;23;1119;-76
2022/10/22 00:10:36;;;;;;;9.70;8.77;;;;;;;13.21;73.35;100457.44;837136;23;1098;-76
2022/10/22 00:10:57;;;;;;;10.05;9.02;;;;;;;13.25;73.30;100467.97;836912;23;781;-76
2022/10/22 00:11:19;;;;;;;10.90;9.57;;;;;;;13.20;73.35;100451.31;837257;23;1023;-75
2022/10/22 00:11:41;;;;;;;10.45;9.30;;;;;;;13.21;73.31;100455.69;838160;23;1001;-77
2022/10/22 00:12:02;;;;;;;9.77;8.77;;;;;;;13.25;73.40;100469.69;839806;23;1467;-76
2022/10/22 00:12:24;;;;;;;9.70;8.70;;;;;;;13.23;73.16;100464.47;835656;23;1045;-76
2022/10/22 00:12:45;;;;;;;9.57;8.30;;;;;;;13.23;73.42;100455.72;839760;23;1212;-76
2022/10/22 00:13:05;;;;;;;10.23;8.20;;;;;;;13.26;73.45;100463.59;841032;23;1020;-76
2022/10/22 00:13:26;;;;;;;13.50;8.50;;;;;;;13.22;73.48;100461.81;841047;23;1004;-76
2022/10/22 00:13:47;;;;;;;14.80;8.70;;;;;;;13.17;73.62;100448.66;840404;23;1091;-76
2022/10/22 00:14:08;;;;;;;13.50;8.70;;;;;;;13.21;73.38;100462.69;843390;23;1259;-75
2022/10/22 00:14:29;;;;;;;10.27;8.35;;;;;;;13.19;73.68;100459.13;843685;23;1430;-76
2022/10/22 00:14:49;;;;;;;9.27;8.30;;;;;;;13.19;73.43;100457.41;845193;23;830;-76
2022/10/22 00:15:11;;;;;;;9.40;8.35;;;;;;;13.20;73.39;100460.94;843767;23;1415;-75
2022/10/22 00:15:32;;;;;;;10.50;8.60;;;;;;;13.22;73.33;100462.69;839611;23;1684;-76
2022/10/22 00:15:53;;;;;;;10.65;8.45;;;;;;;13.23;73.58;100463.56;839798;23;1211;-76
2022/10/22 00:16:13;;;;;;;10.60;8.43;;;;;;;13.22;73.32;100462.69;835636;23;1122;-76
2022/10/22 00:16:34;;;;;;;10.80;8.10;;;;;;;13.25;73.22;100467.06;839297;23;1234;-76
2022/10/22 00:16:55;;;;;;;11.13;8.50;;;;;;;13.21;73.34;100463.53;841249;23;719;-76
2022/10/22 00:17:16;;;;;;;10.38;8.43;;;;;;;13.16;73.53;100455.63;835656;23;1113;-76
2022/10/22 00:17:36;;;;;;;9.40;8.40;;;;;;;13.15;73.55;100459.09;839798;23;1016;-76
2022/10/22 00:17:58;;;;;;;9.10;8.20;;;;;;;13.21;73.55;100470.53;843744;23;1418;-76
2022/10/22 00:18:19;;;;;;;9.13;8.15;;;;;;;13.23;73.45;100474.06;847741;23;1094;-76
2022/10/22 00:18:40;;;;;;;9.20;8.20;;;;;;;13.23;73.49;100474.06;835768;23;1343;-76
2022/10/22 00:19:01;;;;;;;9.05;8.15;;;;;;;13.18;73.35;100465.25;843758;23;1216;-76
2022/10/22 00:19:22;;;;;;;9.80;8.75;;;;;;;13.20;73.41;100474.88;839448;23;1134;-76
2022/10/22 00:19:42;;;;;;;10.90;9.10;;;;;;;13.19;73.42;100472.25;839065;23;1283;-75
2022/10/22 00:20:04;;;;;;;12.30;9.02;;;;;;;13.14;73.34;100462.59;845190;23;1053;-76
2022/10/22 00:20:24;;;;;;;11.95;8.75;;;;;;;13.20;73.50;100471.41;841025;23;992;-76
2022/10/22 00:20:45;;;;;;;12.77;9.30;;;;;;;13.15;73.48;100472.22;837276;23;759;-76
2022/10/22 00:21:07;;;;;;;13.05;9.20;;;;;;;13.13;73.50;100467.81;839652;23;1495;-76
2022/10/22 00:21:29;;;;;;;13.90;9.20;;;;;;;13.14;73.50;100470.47;845165;23;1002;-76
2022/10/22 00:21:50;;;;;;;13.25;8.60;;;;;;;13.21;73.45;100475.78;843799;23;1295;-75
2022/10/22 00:22:11;;;;;;;13.43;8.38;;;;;;;13.16;73.36;100463.47;843821;23;1361;-76
2022/10/22 00:22:31;;;;;;;12.40;7.88;;;;;;;13.15;73.43;100461.72;841073;23;1940;-76
2022/10/22 00:22:52;;;;;;;11.00;8.07;;;;;;;13.18;73.21;100470.47;839827;23;1149;-76
2022/10/22 00:23:12;;;;;;;10.18;8.55;;;;;;;13.18;73.46;100467.88;835729;23;1227;-76
2022/10/22 00:23:33;;;;;;;12.18;8.88;;;;;;;13.20;73.53;100471.41;841021;23;1032;-76
2022/10/22 00:23:54;;;;;;;11.37;8.40;;;;;;;13.18;73.49;100467.88;839854;23;1193;-76
2022/10/22 00:24:15;;;;;;;11.60;8.55;;;;;;;13.15;73.19;100460.88;839556;23;1230;-76
2022/10/22 00:24:38;;;;;;;10.50;8.48;;;;;;;13.16;73.34;100462.63;839736;23;1219;-76
2022/10/22 00:24:58;;;;;;;11.68;8.77;;;;;;;13.20;73.38;100468.78;837200;23;771;-76
2022/10/22 00:25:19;;;;;;;12.02;8.77;;;;;;;13.18;73.04;100465.25;837132;23;1084;-76
2022/10/22 00:25:40;;;;;;;13.33;8.77;;;;;;;13.19;73.31;100469.63;837066;23;1113;-76
2022/10/22 00:26:01;;;;;;;14.35;8.98;;;;;;;13.21;73.17;100471.41;835744;23;1334;-76
2022/10/22 00:26:22;;;;;;;14.83;8.90;;;;;;;13.20;73.25;100474.03;834008;23;1085;-76
2022/10/22 00:26:42;;;;;;;13.45;8.77;;;;;;;13.16;73.17;100463.47;839805;23;1248;-76
2022/10/22 00:27:04;;;;;;;11.00;8.90;;;;;;;13.19;73.10;100467.00;839776;23;1066;-76
2022/10/22 00:27:25;;;;;;;10.27;9.18;;;;;;;13.15;73.23;100460.88;847311;23;1179;-76
2022/10/22 00:27:45;;;;;;;11.05;9.27;;;;;;;13.20;73.08;100460.94;841170;23;827;-76
2022/10/22 00:28:06;;;;;;;11.60;8.70;;;;;;;13.22;73.23;100469.66;835662;23;1031;-76
2022/10/22 00:28:27;;;;;;;12.00;8.43;;;;;;;13.18;73.33;100465.25;837049;23;1152;-76
2022/10/22 00:28:49;;;;;;;10.23;8.57;;;;;;;13.21;73.58;100467.91;837204;23;917;-76
2022/10/22 00:29:09;;;;;;;10.70;8.57;;;;;;;13.19;73.55;100461.75;835923;23;1289;-76
2022/10/22 00:29:30;;;;;;;10.37;8.83;;;;;;;13.14;73.58;100462.59;840833;23;960;-76
2022/10/22 00:29:51;;;;;;;10.90;9.05;;;;;;;13.18;73.38;100470.47;839322;23;1318;-76
2022/10/22 00:30:11;;;;;;;9.93;8.93;;;;;;;13.22;73.28;100477.53;838644;23;1189;-76
2022/10/22 00:30:32;;;;;;;9.57;8.50;;;;;;;13.21;73.03;100474.03;839660;23;1136;-76
2022/10/22 00:30:57;;;;;;;8.80;7.90;;;;;;;13.18;73.14;100470.47;841260;23;964;-76
2022/10/22 00:31:19;;;;;;;8.75;7.80;;;;;;;13.22;73.58;100474.91;839672;23;1265;-76
2022/10/22 00:31:39;;;;;;;9.90;8.43;;;;;;;13.16;73.37;100463.47;839582;23;1295;-76
2022/10/22 00:32:01;;;;;;;12.35;8.60;;;;;;;13.12;73.18;100456.47;835873;23;803;-76
2022/10/22 00:32:21;;;;;;;13.10;8.30;;;;;;;13.22;73.58;100477.53;837211;23;790;-76
2022/10/22 00:32:42;;;;;;;11.43;8.10;;;;;;;13.16;73.52;100473.97;837226;23;1115;-76
2022/10/22 00:33:03;;;;;;;11.70;8.30;;;;;;;13.11;73.32;100470.44;835736;23;1152;-76
2022/10/22 00:33:24;;;;;;;10.70;8.40;;;;;;;13.16;73.26;100479.22;835691;23;1174;-76
2022/10/22 00:33:46;;;;;;;10.50;8.52;;;;;;;13.11;73.45;100470.44;837138;23;775;-76
2022/10/22 00:34:07;;;;;;;9.25;8.25;;;;;;;13.12;73.36;100474.81;837170;23;847;-76
2022/10/22 00:34:28;;;;;;;9.40;8.40;;;;;;;13.13;73.50;100473.94;835688;23;1255;-76
2022/10/22 00:34:48;;;;;;;9.50;8.30;;;;;;;13.13;73.51;100478.28;835442;23;1019;-76
2022/10/22 00:35:09;;;;;;;9.73;8.60;;;;;;;13.12;73.40;100474.81;837049;23;1186;-76
2022/10/22 00:35:29;;;;;;;9.60;8.48;;;;;;;13.15;73.51;100479.22;838068;23;1252;-76
2022/10/22 00:35:50;;;;;;;9.80;8.50;;;;;;;13.13;73.54;100479.19;842432;23;1062;-76
2022/10/22 00:36:11;;;;;;;10.80;8.52;;;;;;;13.12;73.60;100480.03;839682;23;1197;-76
2022/10/22 00:36:32;;;;;;;10.90;8.70;;;;;;;13.13;73.59;100480.91;841005;23;1014;-76
2022/10/22 00:36:53;;;;;;;10.63;9.00;;;;;;;13.14;73.27;100480.94;843813;23;1326;-76
2022/10/22 00:37:13;;;;;;;10.13;9.07;;;;;;;13.12;73.43;100481.78;831765;23;1017;-77
2022/10/22 00:37:34;;;;;;;10.18;9.00;;;;;;;13.09;73.45;100472.13;833873;23;995;-76
2022/10/22 00:37:55;;;;;;;10.83;8.90;;;;;;;13.14;73.33;100480.94;837827;23;735;-76
2022/10/22 00:38:15;;;;;;;11.48;8.57;;;;;;;13.13;73.42;100473.94;841207;23;1150;-76
2022/10/22 00:38:36;;;;;;;12.10;8.60;;;;;;;13.11;73.35;100469.53;839695;23;1126;-77
2022/10/22 00:38:56;;;;;;;11.03;8.57;;;;;;;13.11;73.25;100473.06;835879;23;1356;-76
2022/10/22 00:39:20;;;;;;;10.38;8.68;;;;;;;13.16;73.56;100483.59;835769;23;1313;-76
2022/10/22 00:39:41;;;;;;;9.65;8.27;;;;;;;13.13;73.60;100476.56;835158;23;1329;-76
2022/10/22 00:40:03;;;;;;;11.73;8.13;;;;;;;13.13;73.35;100479.19;834284;23;1100;-76
2022/10/22 00:40:24;;;;;;;11.05;8.20;;;;;;;13.14;73.35;100473.06;835676;23;1289;-76
2022/10/22 00:40:45;;;;;;;11.00;8.75;;;;;;;13.15;73.51;100480.06;841025;23;1154;-77
2022/10/22 00:41:06;;;;;;;10.80;8.90;;;;;;;13.14;73.42;100473.06;836332;23;1393;-76
2022/10/22 00:41:26;;;;;;;11.85;9.10;;;;;;;13.15;73.33;100481.84;841121;23;1251;-76
2022/10/22 00:41:49;;;;;;;11.50;8.87;;;;;;;13.14;73.39;100478.31;832426;23;1099;-76
2022/10/22 00:42:18;;;;;;;13.15;8.95;;;;;;;13.18;73.34;100483.59;836786;23;1426;-76
2022/10/22 00:42:39;;;;;;;12.63;8.60;;;;;;;13.14;73.17;100477.41;835652;23;1390;-76
2022/10/22 00:43:00;;;;;;;11.43;8.60;;;;;;;13.11;73.54;100469.53;839956;23;790;-77
2022/10/22 00:43:20;;;;;;;9.30;8.30;;;;;;;13.18;73.19;100470.47;835286;23;1151;-76
2022/10/22 00:43:59;;;;;;;9.20;8.30;;;;;;;13.22;73.30;100486.25;842284;23;1108;-76
2022/10/22 00:44:57;;;;;;;8.68;7.78;;;;;;;13.23;73.35;100489.78;843671;23;1174;-76
2022/10/22 00:45:22;;;;;;;10.05;8.40;;;;;;;13.22;73.55;100488.00;846976;23;1269;-76
2022/10/22 00:45:44;;;;;;;11.40;8.55;;;;;;;13.19;73.36;100482.72;843874;23;1311;-76
2022/10/22 00:46:04;;;;;;;11.68;8.73;;;;;;;13.14;73.24;100475.69;845122;23;1038;-76
2022/10/22 00:46:26;;;;;;;10.85;8.70;;;;;;;13.22;73.55;100488.88;839704;23;1160;-76
2022/10/22 00:46:46;;;;;;;10.35;8.70;;;;;;;13.16;73.39;100480.97;839710;23;1490;-76
2022/10/22 00:47:07;;;;;;;10.75;8.10;;;;;;;13.16;73.30;100478.34;843845;23;1067;-76
2022/10/22 00:47:31;;;;;;;10.53;8.17;;;;;;;13.22;73.58;100490.63;845141;23;968;-76
2022/10/22 00:47:56;;;;;;;8.95;8.00;;;;;;;13.09;73.16;100474.75;835844;23;1353;-76
2022/10/22 00:48:22;;;;;;;9.40;8.15;;;;;;;13.21;73.44;100492.38;843649;23;2008;-75
2022/10/22 00:48:42;;;;;;;10.70;8.90;;;;;;;13.13;73.47;100479.19;839671;23;1383;-76
2022/10/22 00:49:03;;;;;;;9.70;8.48;;;;;;;13.18;73.44;100483.59;841167;23;1020;-77
2022/10/22 00:49:24;;;;;;;9.80;8.20;;;;;;;13.10;73.54;100480.88;839606;23;1107;-76
2022/10/22 00:49:45;;;;;;;9.75;7.78;;;;;;;13.15;73.69;100487.06;843156;23;1120;-76
2022/10/22 00:50:20;;;;;;;10.45;8.00;;;;;;;13.13;73.55;100476.56;845178;23;1099;-76
2022/10/22 00:50:46;;;;;;;11.30;8.20;;;;;;;13.16;73.68;100487.06;842266;23;1071;-75
2022/10/22 00:51:08;;;;;;;12.73;8.60;;;;;;;13.12;73.47;100482.66;840743;23;1013;-76
2022/10/22 00:51:32;;;;;;;11.88;8.57;;;;;;;13.11;73.59;100478.28;838300;23;1103;-76
2022/10/22 00:51:53;;;;;;;9.43;8.32;;;;;;;13.08;73.63;100474.75;845142;23;826;-76
2022/10/22 00:52:14;;;;;;;9.57;8.32;;;;;;;13.07;73.65;100473.84;839705;23;1228;-76
2022/10/22 00:52:35;;;;;;;11.25;8.52;;;;;;;13.11;73.56;100470.44;845184;23;1086;-76
2022/10/22 00:52:57;;;;;;;13.10;9.00;;;;;;;13.20;73.62;100468.78;845103;23;771;-76
2022/10/22 00:53:20;;;;;;;14.02;9.20;;;;;;;13.24;73.29;100475.81;841185;23;1070;-76
2022/10/22 00:53:48;;;;;;;13.65;8.90;;;;;;;13.21;73.36;100476.63;840966;23;1030;-75
2022/10/22 00:54:10;;;;;;;9.63;8.20;;;;;;;13.24;73.38;100481.94;843853;23;1350;-76
2022/10/22 00:54:32;;;;;;;10.38;8.40;;;;;;;13.24;73.38;100479.31;835663;23;1327;-76
2022/10/22 00:54:53;;;;;;;9.43;8.25;;;;;;;13.25;73.17;100473.22;835805;23;1150;-76
2022/10/22 00:55:15;;;;;;;9.75;8.35;;;;;;;13.22;73.34;100469.66;834705;23;1273;-75
2022/10/22 00:55:36;;;;;;;11.35;8.65;;;;;;;13.21;73.49;100481.03;841176;23;1089;-76
2022/10/22 00:55:57;;;;;;;13.02;8.82;;;;;;;13.21;73.56;100475.78;839799;23;1146;-76
2022/10/22 00:56:19;;;;;;;13.23;8.77;;;;;;;13.24;73.41;100471.47;845221;23;973;-77
2022/10/22 00:56:40;;;;;;;10.77;8.30;;;;;;;13.26;73.40;100476.69;841145;23;1013;-76
2022/10/22 00:57:01;;;;;;;9.18;7.90;;;;;;;13.26;73.60;100476.69;841076;23;1183;-76
2022/10/22 00:57:22;;;;;;;8.73;7.82;;;;;;;13.28;73.14;100486.34;839709;23;834;-76
2022/10/22 00:57:44;;;;;;;8.82;7.93;;;;;;;13.26;73.22;100476.69;835839;23;1364;-75
2022/10/22 00:58:05;;;;;;;10.50;8.70;;;;;;;13.32;73.46;100489.88;836988;23;1028;-76
2022/10/22 00:58:31;;;;;;;11.73;8.80;;;;;;;13.25;73.32;100477.56;835405;23;1115;-76
2022/10/22 00:58:55;;;;;;;10.73;8.90;;;;;;;13.35;73.09;100489.94;837176;23;890;-76
2022/10/22 00:59:17;;;;;;;11.00;8.80;;;;;;;13.34;73.18;100482.03;839668;23;1079;-76
2022/10/22 00:59:38;;;;;;;11.02;9.00;;;;;;;13.33;73.28;100488.16;843176;23;1163;-76
2022/10/22 00:59:59;;;;;;;10.93;8.50;;;;;;;13.32;73.26;100484.63;843325;23;1141;-76
2022/10/22 01:00:21;;;;;;;10.10;8.70;;;;;;;13.31;73.11;100477.63;843628;23;1795;-76
2022/10/22 01:00:42;;;;;;;15.80;9.05;;;;;;;13.35;72.99;100489.94;839714;23;1355;-76
2022/10/22 01:01:05;;;;;;;16.73;9.65;;;;;;;13.35;73.13;100482.06;835581;23;1217;-75
2022/10/22 01:01:29;;;;;;;11.45;9.25;;;;;;;13.31;72.95;100477.63;831692;23;976;-76
2022/10/22 01:02:10;;;;;;;10.40;8.90;;;;;;;13.38;72.89;100495.19;833103;23;820;-76
2022/10/22 01:02:30;;;;;;;9.40;8.40;;;;;;;13.33;73.00;100486.38;836088;23;1929;-76
2022/10/22 01:02:52;;;;;;;9.27;8.32;;;;;;;13.31;73.07;100485.50;842681;23;741;-76
2022/10/22 01:03:14;;;;;;;9.30;8.40;;;;;;;13.33;73.11;100485.53;839679;23;987;-76
2022/10/22 01:03:35;;;;;;;10.00;9.00;;;;;;;13.34;72.87;100489.91;839630;23;1022;-76
2022/10/22 01:03:55;;;;;;;10.80;9.00;;;;;;;13.29;72.80;100479.38;843612;23;1199;-76
2022/10/22 01:04:16;;;;;;;10.93;9.00;;;;;;;13.29;72.75;100476.75;839675;23;1050;-76
2022/10/22 01:04:36;;;;;;;12.00;8.98;;;;;;;13.31;73.05;100480.25;835802;23;1269;-76
2022/10/22 01:04:57;;;;;;;10.93;8.77;;;;;;;13.29;72.88;100479.38;835810;23;1101;-76
2022/10/22 01:05:19;;;;;;;10.77;8.80;;;;;;;13.36;72.94;100482.94;839686;23;1172;-76
2022/10/22 01:05:49;;;;;;;10.55;8.70;;;;;;;13.30;72.83;100481.13;839689;23;1334;-76
2022/10/22 01:06:16;;;;;;;10.10;8.90;;;;;;;13.26;72.84;100469.72;839576;23;1555;-76
2022/10/22 01:06:37;;;;;;;9.77;8.77;;;;;;;13.27;72.80;100470.63;843694;23;1199;-75
2022/10/22 01:06:58;;;;;;;9.60;8.60;;;;;;;13.31;73.03;100482.88;849286;23;736;-76
2022/10/22 01:07:21;;;;;;;9.73;8.70;;;;;;;13.22;73.16;100477.53;849233;23;1005;-75
2022/10/22 01:07:51;;;;;;;11.15;8.82;;;;;;;13.14;73.30;100478.31;853132;23;1144;-76
2022/10/22 01:08:24;;;;;;;12.00;8.85;;;;;;;13.19;72.95;100472.25;849239;23;945;-76
2022/10/22 01:09:06;;;;;;;10.45;8.73;;;;;;;13.12;73.17;100477.44;835802;23;1826;-76
2022/10/22 01:09:36;;;;;;;9.48;8.45;;;;;;;13.14;73.28;100491.41;839531;23;1181;-76
2022/10/22 01:10:07;;;;;;;9.45;8.20;;;;;;;13.09;73.44;100485.22;839505;23;850;-76
2022/10/22 01:11:05;;;;;;;9.25;8.27;;;;;;;13.04;73.37;100484.31;843331;23;1004;-76
2022/10/22 01:11:47;;;;;;;10.23;8.73;;;;;;;13.04;73.84;100479.06;844418;23;913;-76
2022/10/22 01:12:13;;;;;;;10.20;8.70;;;;;;;13.08;73.43;100486.09;847744;23;1415;-76
2022/10/22 01:13:02;;;;;;;10.40;8.77;;;;;;;13.10;73.50;100478.25;844124;23;1120;-76
2022/10/22 01:13:42;;;;;;;9.35;8.32;;;;;;;13.02;73.33;100467.66;843582;23;1560;-76
2022/10/22 01:14:05;;;;;;;8.82;7.85;;;;;;;13.07;73.51;100478.19;839738;23;1644;-75
2022/10/22 01:14:37;;;;;;;9.18;7.90;;;;;;;13.11;73.53;100480.00;840402;23;1113;-74
2022/10/22 01:15:10;;;;;;;12.15;8.18;;;;;;;13.08;73.44;100475.59;839669;23;1489;-76
2022/10/22 01:15:41;;;;;;;11.90;8.40;;;;;;;13.02;73.35;100472.91;839210;23;1215;-76
2022/10/22 01:16:16;;;;;;;10.23;8.63;;;;;;;12.98;73.60;100471.13;845154;23;1023;-77
2022/10/22 01:16:48;;;;;;;9.65;8.20;;;;;;;12.97;73.50;100472.84;849124;23;1083;-76
2022/10/22 01:17:18;;;;;;;11.38;8.35;;;;;;;12.93;73.40;100470.13;849153;23;1096;-76
2022/10/22 01:18:05;;;;;;;11.70;8.68;;;;;;;12.98;73.58;100484.22;849229;23;1079;-77
2022/10/22 01:18:26;;;;;;;10.25;8.13;;;;;;;12.98;73.66;100476.34;843347;23;1269;-76
2022/10/22 01:19:05;;;;;;;10.80;8.10;;;;;;;12.96;73.50;100472.84;839667;23;1116;-76
2022/10/22 01:19:31;;;;;;;9.20;7.60;;;;;;;12.96;73.86;100470.22;842092;23;1074;-77
2022/10/22 01:20:16;;;;;;;7.93;7.13;;;;;;;12.96;73.68;100472.84;839278;23;1888;-76
2022/10/22 01:21:21;;;;;;;9.55;7.68;;;;;;;12.93;73.51;100464.91;844648;23;933;-76
2022/10/22 01:21:55;;;;;;;9.07;7.82;;;;;;;12.86;73.67;100462.19;837624;23;1541;-77
2022/10/22 01:22:27;;;;;;;9.30;7.93;;;;;;;12.85;73.85;100468.28;835594;23;1166;-77
2022/10/22 01:23:06;;;;;;;9.13;7.60;;;;;;;12.91;73.93;100471.88;837097;23;795;-77
2022/10/22 01:23:46;;;;;;;9.63;7.53;;;;;;;12.92;73.58;100473.63;835422;23;1378;-76
2022/10/22 01:24:29;;;;;;;9.65;7.93;;;;;;;12.91;73.71;100471.88;834873;23;1077;-77
2022/10/22 01:25:01;;;;;;;8.63;7.55;;;;;;;12.90;73.91;100470.97;835521;23;1379;-76
2022/10/22 01:25:52;;;;;;;8.57;7.45;;;;;;;12.85;73.76;100459.56;835534;23;1046;-76
2022/10/22 01:26:59;;;;;;;12.63;8.10;;;;;;;12.86;73.81;100462.19;836888;23;1072;-77
2022/10/22 01:28:10;;;;;;;8.68;7.75;;;;;;;12.92;73.85;100457.91;842782;23;1276;-77
2022/10/22 01:28:55;;;;;;;8.98;7.68;;;;;;;12.87;73.78;100460.47;833043;23;1028;-76
2022/10/22 01:29:21;;;;;;;11.85;7.65;;;;;;;12.81;73.85;100450.78;836460;23;1389;-76
2022/10/22 01:29:47;;;;;;;10.18;7.68;;;;;;;12.81;73.98;100453.41;844589;23;1091;-76
2022/10/22 01:30:12;;;;;;;8.48;7.55;;;;;;;12.82;73.89;100456.91;839415;23;1840;-76
2022/10/22 01:30:36;;;;;;;9.45;7.38;;;;;;;12.82;74.07;100456.91;840911;23;981;-77
2022/10/22 01:30:58;;;;;;;9.00;6.85;;;;;;;12.81;73.76;100458.66;835483;23;858;-76
2022/10/22 01:31:22;;;;;;;8.05;6.70;;;;;;;12.82;73.93;100454.28;840803;23;1060;-76
2022/10/22 01:31:50;;;;;;;9.32;7.45;;;;;;;12.85;73.85;100468.28;843263;23;1306;-76
2022/10/22 01:32:15;;;;;;;10.68;7.70;;;;;;;12.82;73.86;100454.28;843225;23;1307;-76
2022/10/22 01:32:47;;;;;;;11.50;7.80;;;;;;;12.79;73.82;100452.50;844777;23;1213;-76
2022/10/22 01:33:12;;;;;;;9.63;7.63;;;;;;;12.79;73.50;100447.25;839200;23;977;-76
2022/10/22 01:33:33;;;;;;;8.82;7.82;;;;;;;12.78;73.71;100450.72;839391;23;1863;-76
2022/10/22 01:33:54;;;;;;;9.80;8.10;;;;;;;12.85;73.50;100456.94;839474;23;841;-77
2022/10/22 01:34:17;;;;;;;9.20;7.70;;;;;;;12.79;73.67;100451.63;844669;23;969;-76
2022/10/22 01:34:41;;;;;;;9.05;7.38;;;;;;;12.80;73.59;100449.03;844954;23;995;-77
2022/10/22 01:35:07;;;;;;;9.18;7.40;;;;;;;12.87;73.90;100461.34;840921;23;965;-77
2022/10/22 01:35:36;;;;;;;9.52;7.10;;;;;;;12.84;73.63;100458.69;843521;23;1044;-77
2022/10/22 01:35:58;;;;;;;12.20;7.40;;;;;;;12.74;74.06;100443.72;839654;23;1487;-77
2022/10/22 01:36:20;;;;;;;12.63;7.80;;;;;;;12.81;73.96;100466.50;843184;23;1407;-77
2022/10/22 01:36:43;;;;;;;11.48;7.50;;;;;;;12.73;73.91;100447.19;839621;23;1208;-76
2022/10/22 01:37:06;;;;;;;9.10;7.20;;;;;;;12.78;74.02;100455.09;835614;23;1254;-77
2022/10/22 01:37:33;;;;;;;8.10;7.30;;;;;;;12.70;73.83;100450.63;833171;23;1099;-76
2022/10/22 01:38:00;;;;;;;8.30;7.45;;;;;;;12.75;73.94;100455.94;837371;23;767;-76
2022/10/22 01:38:24;;;;;;;9.10;7.28;;;;;;;12.75;74.12;100461.19;836994;23;1112;-76
2022/10/22 01:38:46;;;;;;;10.90;7.60;;;;;;;12.72;73.83;100455.91;835794;23;1225;-76
2022/10/22 01:39:09;;;;;;;11.65;7.82;;;;;;;12.70;74.01;100450.63;839595;23;1310;-76
2022/10/22 01:39:30;;;;;;;11.73;8.10;;;;;;;12.70;73.97;100452.38;839253;23;1204;-76
2022/10/22 01:39:52;;;;;;;11.20;7.97;;;;;;;12.73;73.85;100460.28;839167;23;1097;-76
2022/10/22 01:40:15;;;;;;;11.25;7.90;;;;;;;12.69;74.14;100455.84;845093;23;998;-77
2022/10/22 01:40:36;;;;;;;10.80;7.78;;;;;;;12.71;73.97;100457.63;845011;23;1064;-76
2022/10/22 01:40:58;;;;;;;9.45;7.35;;;;;;;12.69;73.80;100455.84;840436;23;1788;-76
2022/10/22 01:41:18;;;;;;;7.97;7.10;;;;;;;12.71;73.87;100449.78;839666;23;1005;-76
2022/10/22 01:41:44;;;;;;;7.50;6.80;;;;;;;12.77;73.68;100464.69;840977;23;913;-76
2022/10/22 01:42:05;;;;;;;8.60;7.70;;;;;;;12.68;73.90;100443.63;831617;23;1163;-76
2022/10/22 01:42:26;;;;;;;9.25;7.90;;;;;;;12.69;73.82;100459.34;831603;23;1941;-76
2022/10/22 01:43:12;;;;;;;11.25;8.30;;;;;;;12.78;73.72;100463.81;833245;23;870;-77
2022/10/22 01:43:33;;;;;;;14.80;7.97;;;;;;;12.73;73.75;100457.66;827654;23;1105;-76
2022/10/22 01:43:54;;;;;;;13.40;8.00;;;;;;;12.72;73.84;100461.16;833276;23;1134;-76
2022/10/22 01:44:23;;;;;;;11.20;7.63;;;;;;;12.80;73.37;100466.47;840396;23;1030;-76
2022/10/22 01:44:44;;;;;;;9.98;7.85;;;;;;;12.80;73.38;100461.22;841116;23;763;-76
2022/10/22 01:45:13;;;;;;;10.37;8.07;;;;;;;12.78;73.33;100450.72;839552;23;1177;-77
2022/10/22 01:45:37;;;;;;;8.77;7.75;;;;;;;12.80;73.31;100462.13;839326;23;966;-77
2022/10/22 01:46:01;;;;;;;9.57;7.70;;;;;;;12.73;73.63;100455.03;839805;23;1025;-76
2022/10/22 01:46:24;;;;;;;11.18;8.18;;;;;;;12.74;73.63;100459.41;835603;23;1100;-76
2022/10/22 01:46:48;;;;;;;13.43;8.35;;;;;;;12.77;73.67;100475.16;831774;23;1510;-77
2022/10/22 01:47:20;;;;;;;12.13;8.40;;;;;;;12.78;73.63;100471.69;837155;23;1055;-76
2022/10/22 01:47:55;;;;;;;10.32;7.88;;;;;;;12.72;73.61;100467.25;835566;23;1474;-77
2022/10/22 01:48:42;;;;;;;10.40;8.00;;;;;;;12.77;73.67;100472.53;835610;23;1995;-77
2022/10/22 01:49:16;;;;;;;11.30;8.00;;;;;;;12.76;73.51;100468.16;832901;23;1343;-76
2022/10/22 01:50:09;;;;;;;11.40;7.82;;;;;;;12.72;73.50;100463.75;832323;23;918;-77
2022/10/22 01:50:47;;;;;;;12.93;7.90;;;;;;;12.74;73.55;100469.91;836902;23;1210;-76
2022/10/22 01:51:28;;;;;;;11.38;7.70;;;;;;;12.72;73.76;100462.00;841021;23;934;-76
2022/10/22 01:52:31;;;;;;;10.82;7.43;;;;;;;12.73;73.54;100465.53;851993;23;974;-76
2022/10/22 01:53:04;;;;;;;10.55;7.45;;;;;;;12.70;73.71;100462.84;853460;23;837;-77
2022/10/22 01:53:49;;;;;;;9.90;7.30;;;;;;;12.67;73.52;100452.34;853278;23;1117;-76
2022/10/22 01:54:16;;;;;;;9.70;7.63;;;;;;;12.69;73.49;100463.69;849182;23;969;-76
2022/10/22 01:55:05;;;;;;;9.38;7.82;;;;;;;12.63;73.90;100450.50;847889;23;1868;-76
2022/10/22 01:55:44;;;;;;;10.07;7.53;;;;;;;12.67;73.72;100454.94;841837;23;1405;-77
2022/10/22 01:56:07;;;;;;;9.95;8.50;;;;;;;12.65;73.56;100454.91;838172;23;1183;-77
2022/10/22 01:56:28;;;;;;;10.90;8.40;;;;;;;12.65;73.67;100456.69;831249;23;1038;-76
2022/10/22 01:56:53;;;;;;;11.23;7.93;;;;;;;12.60;73.71;100444.38;840026;23;1269;-76
2022/10/22 01:57:22;;;;;;;9.40;7.53;;;;;;;12.64;73.52;100455.78;839868;23;1192;-77
2022/10/22 01:58:03;;;;;;;8.75;7.80;;;;;;;12.64;73.21;100445.31;841318;23;987;-76
2022/10/22 01:58:23;;;;;;;9.88;8.10;;;;;;;12.68;73.46;100448.84;839771;23;1178;-76
2022/10/22 01:59:11;;;;;;;10.80;8.20;;;;;;;12.67;73.54;100447.09;841321;23;754;-76
2022/10/22 01:59:37;;;;;;;10.80;8.30;;;;;;;12.68;73.52;100446.25;843590;23;1204;-76
2022/10/22 02:00:05;;;;;;;10.05;8.30;;;;;;;12.54;73.74;100432.97;839909;23;1376;-76
2022/10/22 02:00:27;;;;;;;9.68;8.60;;;;;;;12.57;73.52;100441.75;841306;23;1137;-76
2022/10/22 02:01:12;;;;;;;10.70;8.70;;;;;;;12.57;73.93;100440.84;836089;23;1052;-76
2022/10/22 02:02:11;;;;;;;10.15;7.80;;;;;;;12.63;73.39;100453.13;841549;23;968;-76